createdAt,value
2022-10-23T00:02:32.625Z,3.77
2022-10-23T00:05:34.370Z,3.70
2022-10-23T00:08:36.164Z,3.80
2022-10-23T00:11:38.013Z,3.73
2022-10-23T00:14:39.663Z,3.73
2022-10-23T00:17:41.729Z,3.57
2022-10-23T00:20:43.580Z,3.53
2022-10-23T00:23:46.016Z,3.50
2022-10-23T00:26:50.507Z,3.63
2022-10-23T00:29:52.223Z,4.27
2022-10-23T00:32:53.922Z,3.70
2022-10-23T00:35:55.604Z,3.33
2022-10-23T00:38:57.276Z,3.73
2022-10-23T00:41:58.965Z,3.63
2022-10-23T00:45:15.445Z,3.10
2022-10-23T00:48:18.155Z,3.63
2022-10-23T00:51:20.225Z,3.87
2022-10-23T00:54:25.535Z,3.27
2022-10-23T01:00:55.779Z,2.73
2022-10-23T01:03:58.161Z,3.43
2022-10-23T01:07:08.869Z,3.60
2022-10-23T01:10:19.251Z,3.00
2022-10-23T01:13:37.669Z,3.33
2022-10-23T01:16:43.165Z,3.17
2022-10-23T01:20:22.515Z,3.00
2022-10-23T01:23:51.501Z,2.60
2022-10-23T01:26:59.083Z,3.07
2022-10-23T01:30:06.347Z,2.70
2022-10-23T01:33:22.642Z,2.60
2022-10-23T01:36:29.128Z,2.50
2022-10-23T01:39:39.760Z,2.73
2022-10-23T01:42:47.836Z,2.80
2022-10-23T01:45:54.993Z,2.90
2022-10-23T01:48:59.975Z,2.77
2022-10-23T01:52:06.207Z,2.60
2022-10-23T01:55:11.928Z,2.87
2022-10-23T01:58:16.369Z,2.83
2022-10-23T02:01:21.399Z,2.80
2022-10-23T02:04:36.272Z,2.30
2022-10-23T02:07:38.515Z,2.57
2022-10-23T02:10:49.167Z,2.73
2022-10-23T02:14:10.138Z,2.80
2022-10-23T02:17:29.841Z,2.30
2022-10-23T02:20:45.569Z,2.37
2022-10-23T02:23:52.477Z,3.50
2022-10-23T02:27:02.528Z,3.07
2022-10-23T02:30:10.428Z,3.13
2022-10-23T02:33:14.007Z,3.53
2022-10-23T02:36:18.018Z,3.67
2022-10-23T02:39:24.233Z,3.13
2022-10-23T02:42:35.376Z,3.13
2022-10-23T02:45:51.729Z,3.07
2022-10-23T02:49:19.912Z,3.17
2022-10-23T02:52:29.401Z,2.70
2022-10-23T02:56:08.113Z,3.10
2022-10-23T02:59:31.028Z,3.30
2022-10-23T03:02:50.031Z,3.87
2022-10-23T03:05:52.999Z,4.10
2022-10-23T03:09:00.031Z,3.50
2022-10-23T03:12:01.934Z,4.57
2022-10-23T03:15:08.773Z,3.30
2022-10-23T03:18:10.412Z,3.40
2022-10-23T03:21:12.450Z,3.03
2022-10-23T03:24:14.098Z,3.83
2022-10-23T03:27:18.319Z,3.63
2022-10-23T03:30:20.140Z,3.50
2022-10-23T03:33:25.899Z,3.73
2022-10-23T03:36:27.543Z,3.43
2022-10-23T03:39:29.440Z,3.90
2022-10-23T03:42:31.948Z,4.23
2022-10-23T03:45:33.677Z,4.07
2022-10-23T03:48:38.148Z,4.37
2022-10-23T03:51:41.682Z,3.90
2022-10-23T03:54:43.365Z,2.90
2022-10-23T03:57:45.693Z,3.33
2022-10-23T04:00:47.431Z,3.23
2022-10-23T04:03:49.227Z,3.57
2022-10-23T04:06:51.335Z,3.13
2022-10-23T04:09:54.291Z,3.23
2022-10-23T04:12:56.027Z,3.30
2022-10-23T04:15:57.709Z,3.57
2022-10-23T04:18:59.418Z,3.20
2022-10-23T04:22:01.143Z,3.77
2022-10-23T04:25:02.981Z,3.60
2022-10-23T04:28:06.464Z,4.07
2022-10-23T04:31:12.774Z,3.60
2022-10-23T04:34:16.568Z,4.07
2022-10-23T04:37:18.346Z,3.93
2022-10-23T04:40:20.003Z,4.43
2022-10-23T04:43:22.113Z,3.77
2022-10-23T04:46:23.842Z,4.03
2022-10-23T04:49:25.577Z,3.50
2022-10-23T04:52:47.519Z,4.10
2022-10-23T04:56:15.065Z,3.63
2022-10-23T04:59:33.896Z,3.80
2022-10-23T05:02:36.019Z,3.40
2022-10-23T05:05:37.699Z,3.70
2022-10-23T05:08:59.055Z,3.43
2022-10-23T05:12:28.252Z,3.80
2022-10-23T05:15:30.239Z,2.80
2022-10-23T05:18:49.996Z,3.50
2022-10-23T05:21:55.726Z,3.80
2022-10-23T05:25:02.111Z,3.40
2022-10-23T05:28:06.367Z,3.60
2022-10-23T05:31:08.227Z,4.37
2022-10-23T05:34:16.402Z,3.63
2022-10-23T05:37:19.764Z,3.53
2022-10-23T05:40:21.887Z,3.50
2022-10-23T05:43:30.979Z,3.50
2022-10-23T05:46:43.572Z,3.33
2022-10-23T05:49:47.849Z,3.70
2022-10-23T05:52:49.605Z,3.63
2022-10-23T05:56:11.532Z,3.97
2022-10-23T05:59:22.872Z,3.27
2022-10-23T06:02:43.811Z,4.57
2022-10-23T06:05:58.522Z,5.37
2022-10-23T06:09:10.199Z,4.57
2022-10-23T06:12:14.565Z,5.47
2022-10-23T06:15:19.919Z,4.43
2022-10-23T06:18:32.789Z,5.10
2022-10-23T06:21:40.677Z,5.23
2022-10-23T06:24:44.885Z,4.87
2022-10-23T06:27:48.553Z,4.60
2022-10-23T06:30:50.317Z,5.90
2022-10-23T06:33:53.000Z,5.67
2022-10-23T06:36:54.672Z,5.87
2022-10-23T06:40:08.637Z,4.60
2022-10-23T06:43:48.361Z,4.87
2022-10-23T06:46:56.009Z,4.33
2022-10-23T06:50:16.548Z,3.73
2022-10-23T06:53:19.834Z,3.93
2022-10-23T06:56:29.137Z,3.50
2022-10-23T06:59:30.936Z,3.63
2022-10-23T07:02:32.792Z,4.80
2022-10-23T07:05:35.203Z,3.43
2022-10-23T07:08:37.957Z,3.37
2022-10-23T07:11:51.008Z,3.80
2022-10-23T07:14:54.373Z,3.93
2022-10-23T07:17:56.817Z,3.80
2022-10-23T07:21:00.089Z,3.50
2022-10-23T07:24:04.161Z,3.93
2022-10-23T07:27:08.447Z,3.83
2022-10-23T07:30:11.409Z,4.73
2022-10-23T07:33:19.685Z,5.13
2022-10-23T07:36:36.292Z,5.53
2022-10-23T07:39:37.987Z,5.70
2022-10-23T07:42:39.722Z,5.23
2022-10-23T07:45:42.595Z,5.40
2022-10-23T07:48:52.327Z,5.00
2022-10-23T07:51:54.199Z,5.13
2022-10-23T07:54:55.973Z,4.20
2022-10-23T07:57:58.857Z,5.30
2022-10-23T08:01:40.651Z,5.53
2022-10-23T08:04:46.679Z,4.77
2022-10-23T08:08:04.646Z,4.00
2022-10-23T08:11:07.011Z,4.07
2022-10-23T08:14:19.370Z,3.93
2022-10-23T08:17:24.049Z,4.77
2022-10-23T08:20:42.701Z,3.87
2022-10-23T08:23:45.067Z,4.17
2022-10-23T08:26:49.952Z,4.50
2022-10-23T08:29:53.857Z,3.97
2022-10-23T08:32:56.202Z,4.47
2022-10-23T08:35:58.087Z,4.07
2022-10-23T08:39:06.174Z,4.57
2022-10-23T08:42:20.455Z,4.33
2022-10-23T08:45:46.361Z,4.57
2022-10-23T08:49:25.264Z,3.93
2022-10-23T08:52:50.785Z,4.03
2022-10-23T08:56:12.173Z,4.63
2022-10-23T08:59:32.992Z,4.43
2022-10-23T09:02:43.393Z,4.57
2022-10-23T09:06:08.788Z,4.00
2022-10-23T09:09:34.873Z,4.43
2022-10-23T09:12:36.830Z,4.67
2022-10-23T09:15:50.901Z,4.13
2022-10-23T09:18:53.375Z,4.20
2022-10-23T09:21:56.181Z,4.33
2022-10-23T09:24:57.813Z,5.10
2022-10-23T09:28:05.056Z,4.20
2022-10-23T09:31:09.361Z,3.70
2022-10-23T09:34:19.985Z,4.00
2022-10-23T09:37:31.050Z,4.00
2022-10-23T09:40:41.925Z,4.37
2022-10-23T09:43:43.927Z,4.50
2022-10-23T09:49:57.234Z,4.73
2022-10-23T09:52:59.271Z,5.87
2022-10-23T09:56:24.631Z,5.93
2022-10-23T09:59:29.735Z,5.10
2022-10-23T10:02:37.101Z,5.83
2022-10-23T10:05:42.504Z,5.60
2022-10-23T10:08:54.347Z,5.33
2022-10-23T10:12:03.119Z,6.60
2022-10-23T10:15:18.677Z,4.77
2022-10-23T10:18:34.880Z,6.00
2022-10-23T10:22:25.809Z,3.33
2022-10-23T10:25:52.128Z,2.30
2022-10-23T10:29:10.628Z,2.10
2022-10-23T10:32:31.927Z,2.27
2022-10-23T10:35:55.571Z,1.80
2022-10-23T10:39:01.172Z,1.10
2022-10-23T10:42:55.966Z,1.40
2022-10-23T10:46:05.320Z,1.30
2022-10-23T10:49:28.772Z,1.70
2022-10-23T10:52:58.844Z,2.13
2022-10-23T10:56:04.410Z,2.37
2022-10-23T10:59:30.797Z,2.63
2022-10-23T11:02:47.649Z,2.90
2022-10-23T11:05:51.523Z,2.53
2022-10-23T11:09:03.979Z,1.97
2022-10-23T11:12:21.605Z,2.93
2022-10-23T11:15:36.314Z,2.70
2022-10-23T11:18:43.021Z,2.40
2022-10-23T11:21:52.944Z,3.00
2022-10-23T11:25:26.736Z,3.20
2022-10-23T11:28:46.285Z,3.23
2022-10-23T11:32:30.428Z,3.10
2022-10-23T11:36:09.506Z,2.20
2022-10-23T11:39:24.958Z,2.60
2022-10-23T11:42:41.770Z,2.10
2022-10-23T11:45:43.742Z,1.80
2022-10-23T11:48:47.102Z,2.20
2022-10-23T11:52:03.992Z,1.43
2022-10-23T11:55:27.588Z,1.20
2022-10-23T11:58:41.039Z,1.60
2022-10-23T12:01:45.354Z,1.27
2022-10-23T12:04:50.220Z,1.50
2022-10-23T12:07:57.645Z,1.10
2022-10-23T12:10:59.734Z,1.40
2022-10-23T12:14:01.464Z,1.23
2022-10-23T12:17:18.695Z,1.20
2022-10-23T12:20:52.061Z,1.23
2022-10-23T12:24:05.792Z,1.40
2022-10-23T12:27:45.463Z,1.30
2022-10-23T12:31:17.045Z,1.17
2022-10-23T12:34:26.031Z,1.30
2022-10-23T12:37:56.676Z,1.47
2022-10-23T12:41:16.207Z,1.27
2022-10-23T12:44:20.715Z,1.47
2022-10-23T12:47:22.389Z,0.97
2022-10-23T12:50:27.260Z,1.10
2022-10-23T12:53:28.961Z,1.00
2022-10-23T12:56:36.621Z,1.17
2022-10-23T12:59:39.236Z,1.73
2022-10-23T13:02:40.957Z,1.00
2022-10-23T13:05:43.395Z,1.07
2022-10-23T13:08:47.744Z,1.07
2022-10-23T13:12:14.805Z,1.10
2022-10-23T13:15:18.923Z,1.20
2022-10-23T13:18:20.656Z,1.00
2022-10-23T13:21:28.448Z,1.10
2022-10-23T13:24:31.188Z,1.30
2022-10-23T13:27:34.274Z,0.90
2022-10-23T13:30:39.595Z,1.23
2022-10-23T13:33:45.509Z,1.17
2022-10-23T13:36:53.630Z,1.20
2022-10-23T13:40:07.514Z,1.63
2022-10-23T13:43:16.194Z,2.53
2022-10-23T13:46:19.841Z,1.83
2022-10-23T13:49:21.521Z,2.23
2022-10-23T13:52:24.527Z,2.00
2022-10-23T13:55:26.995Z,1.73
2022-10-23T13:58:28.653Z,2.23
2022-10-23T14:01:33.443Z,1.47
2022-10-23T14:04:35.158Z,1.43
2022-10-23T14:07:36.818Z,2.10
2022-10-23T14:10:38.500Z,2.03
2022-10-23T14:13:40.330Z,1.60
2022-10-23T14:16:42.066Z,1.50
2022-10-23T14:19:43.802Z,2.17
2022-10-23T14:22:45.891Z,1.40
2022-10-23T14:25:47.753Z,1.53
2022-10-23T14:28:52.789Z,1.60
2022-10-23T14:31:54.458Z,2.00
2022-10-23T14:34:56.157Z,1.80
2022-10-23T14:37:58.466Z,2.10
2022-10-23T14:41:00.255Z,1.90
2022-10-23T14:44:01.865Z,2.20
2022-10-23T14:47:03.920Z,2.43
2022-10-23T14:50:06.140Z,3.07
2022-10-23T14:53:07.834Z,2.60
2022-10-23T14:56:09.685Z,2.57
2022-10-23T14:59:13.212Z,2.50
2022-10-23T15:02:15.791Z,2.60
2022-10-23T15:05:17.463Z,2.13
2022-10-23T15:08:19.395Z,1.60
2022-10-23T15:11:22.213Z,1.80
2022-10-23T15:14:23.946Z,2.77
2022-10-23T15:17:25.673Z,2.70
2022-10-23T15:20:27.408Z,2.57
2022-10-23T15:23:29.057Z,2.70
2022-10-23T15:26:30.981Z,3.80
2022-10-23T15:29:32.613Z,5.30
2022-10-23T15:32:34.261Z,4.70
2022-10-23T15:35:35.902Z,5.27
2022-10-23T15:38:37.574Z,5.13
2022-10-23T15:41:41.487Z,5.10
2022-10-23T15:44:43.157Z,3.57
2022-10-23T15:47:45.039Z,4.30
2022-10-23T15:50:46.827Z,4.03
2022-10-23T15:53:48.943Z,4.00
2022-10-23T15:56:52.565Z,6.40
2022-10-23T15:59:54.228Z,6.13
2022-10-23T16:02:55.912Z,2.80
2022-10-23T16:05:57.551Z,2.30
2022-10-23T16:08:59.574Z,2.30
2022-10-23T16:12:01.233Z,2.17
2022-10-23T16:15:03.007Z,3.70
2022-10-23T16:18:04.869Z,3.03
2022-10-23T16:21:07.601Z,2.43
2022-10-23T16:24:10.070Z,2.53
2022-10-23T16:27:11.880Z,2.57
2022-10-23T16:30:14.599Z,2.93
2022-10-23T16:33:16.243Z,2.03
2022-10-23T16:36:18.951Z,3.07
2022-10-23T16:39:49.237Z,3.50
2022-10-23T16:43:06.166Z,4.60
2022-10-23T16:46:17.555Z,3.67
2022-10-23T16:49:19.239Z,3.60
2022-10-23T16:52:20.925Z,2.97
2022-10-23T16:55:22.608Z,2.30
2022-10-23T16:58:25.990Z,2.40
2022-10-23T17:01:30.138Z,2.57
2022-10-23T17:04:31.851Z,2.13
2022-10-23T17:07:33.548Z,2.97
2022-10-23T17:10:35.179Z,2.73
2022-10-23T17:13:39.287Z,1.97
2022-10-23T17:16:50.319Z,2.40
2022-10-23T17:19:51.952Z,2.20
2022-10-23T17:22:53.602Z,2.37
2022-10-23T17:25:55.826Z,2.70
2022-10-23T17:28:59.092Z,2.93
2022-10-23T17:32:00.957Z,4.23
2022-10-23T17:35:05.573Z,4.27
2022-10-23T17:38:07.242Z,2.50
2022-10-23T17:41:10.203Z,2.27
2022-10-23T17:44:12.235Z,2.93
2022-10-23T17:47:13.984Z,3.50
2022-10-23T17:50:15.919Z,3.00
2022-10-23T17:53:17.580Z,3.60
2022-10-23T17:56:25.060Z,3.63
2022-10-23T17:59:26.749Z,3.40
2022-10-23T18:02:28.473Z,3.63
2022-10-23T18:05:33.081Z,2.63
2022-10-23T18:08:36.358Z,3.53
2022-10-23T18:11:45.347Z,3.10
2022-10-23T18:14:48.647Z,3.40
2022-10-23T18:17:50.301Z,3.57
2022-10-23T18:20:51.939Z,3.50
2022-10-23T18:23:53.895Z,3.53
2022-10-23T18:26:55.563Z,4.13
2022-10-23T18:29:57.268Z,4.20
2022-10-23T18:32:58.919Z,3.80
2022-10-23T18:36:00.619Z,4.70
2022-10-23T18:39:03.484Z,2.67
2022-10-23T18:42:05.535Z,2.73
2022-10-23T18:45:07.806Z,2.67
2022-10-23T18:48:09.497Z,3.60
2022-10-23T18:51:16.938Z,3.83
2022-10-23T18:54:20.521Z,2.83
2022-10-23T18:57:22.172Z,3.30
2022-10-23T19:00:23.983Z,2.80
2022-10-23T19:03:25.641Z,2.50
2022-10-23T19:06:29.120Z,3.60
2022-10-23T19:09:30.766Z,3.20
2022-10-23T19:12:32.562Z,3.33
2022-10-23T19:15:36.613Z,3.07
2022-10-23T19:18:42.350Z,3.40
2022-10-23T19:21:44.851Z,2.73
2022-10-23T19:24:54.018Z,3.33
2022-10-23T19:27:57.594Z,4.13
2022-10-23T19:31:00.144Z,3.30
2022-10-23T19:34:01.827Z,3.47
2022-10-23T19:37:03.721Z,4.07
2022-10-23T19:40:07.457Z,3.47
2022-10-23T19:43:09.099Z,2.60
2022-10-23T19:46:12.395Z,2.60
2022-10-23T19:49:14.422Z,2.60
2022-10-23T19:52:16.073Z,2.87
2022-10-23T19:55:17.839Z,3.50
2022-10-23T19:58:19.565Z,2.87
2022-10-23T20:01:25.186Z,3.10
2022-10-23T20:04:28.739Z,3.07
2022-10-23T20:07:30.460Z,2.43
2022-10-23T20:10:32.317Z,3.33
2022-10-23T20:13:34.200Z,3.13
2022-10-23T20:16:38.053Z,2.30
2022-10-23T20:19:39.910Z,2.70
2022-10-23T20:22:43.114Z,2.40
2022-10-23T20:25:45.888Z,3.07
2022-10-23T20:28:48.476Z,3.57
2022-10-23T20:31:50.869Z,3.57
2022-10-23T20:34:52.786Z,3.90
2022-10-23T20:37:54.500Z,4.23
2022-10-23T20:41:03.979Z,4.37
2022-10-23T20:44:07.350Z,2.73
2022-10-23T20:47:09.102Z,2.73
2022-10-23T20:50:10.926Z,2.97
2022-10-23T20:53:12.689Z,3.40
2022-10-23T20:56:32.338Z,2.60
2022-10-23T20:59:34.140Z,2.23
2022-10-23T21:02:36.104Z,3.03
2022-10-23T21:05:38.136Z,2.07
2022-10-23T21:08:40.832Z,1.80
2022-10-23T21:11:42.579Z,1.50
2022-10-23T21:14:44.383Z,1.60
2022-10-23T21:17:48.949Z,1.90
2022-10-23T21:20:54.943Z,1.83
2022-10-23T21:23:59.456Z,1.90
2022-10-23T21:27:01.254Z,1.60
2022-10-23T21:30:03.207Z,1.13
2022-10-23T21:33:05.770Z,1.40
2022-10-23T21:36:15.387Z,1.60
2022-10-23T21:39:17.322Z,1.60
2022-10-23T21:42:19.295Z,2.00
2022-10-23T21:45:21.347Z,1.20
2022-10-23T21:48:23.166Z,1.57
2022-10-23T21:51:35.619Z,1.10
2022-10-23T21:54:37.419Z,1.77
2022-10-23T21:57:39.182Z,1.50
2022-10-23T22:00:40.891Z,1.20
2022-10-23T22:03:42.527Z,1.37
2022-10-23T22:06:45.245Z,1.90
2022-10-23T22:09:46.877Z,2.17
2022-10-23T22:12:48.718Z,2.50
2022-10-23T22:15:50.370Z,2.47
2022-10-23T22:18:52.388Z,2.60
2022-10-23T22:21:54.899Z,2.80
2022-10-23T22:24:56.637Z,1.97
2022-10-23T22:27:59.073Z,2.03
2022-10-23T22:31:01.874Z,2.53
2022-10-23T22:34:18.487Z,2.00
2022-10-23T22:37:27.330Z,1.70
2022-10-23T22:40:29.001Z,1.60
2022-10-23T22:43:31.181Z,1.53
2022-10-23T22:46:33.095Z,1.40
2022-10-23T22:49:34.787Z,1.70
2022-10-23T22:52:36.409Z,1.37
2022-10-23T22:55:42.440Z,1.50
2022-10-23T22:58:44.738Z,1.63
2022-10-23T23:01:47.555Z,2.60
2022-10-23T23:04:49.265Z,2.00
2022-10-23T23:07:50.944Z,2.23
2022-10-23T23:10:53.908Z,2.27
2022-10-23T23:13:55.593Z,1.90
2022-10-23T23:16:57.283Z,2.20
2022-10-23T23:19:59.201Z,1.70
2022-10-23T23:23:00.901Z,2.10
2022-10-23T23:26:05.529Z,2.13
2022-10-23T23:29:07.358Z,2.13
2022-10-23T23:32:10.427Z,2.70
2022-10-23T23:35:12.136Z,2.23
2022-10-23T23:38:13.972Z,2.53
2022-10-23T23:41:17.750Z,1.73
2022-10-23T23:44:19.415Z,2.73
2022-10-23T23:47:21.106Z,1.43
2022-10-23T23:50:22.916Z,2.23
2022-10-23T23:53:24.732Z,2.07
2022-10-23T23:56:26.517Z,1.40
2022-10-23T23:59:28.187Z,1.83
